sensor_id;sensor_type;location;lat;lon;timestamp;pressure;altitude;pressure_sealevel;temperature;humidity
71970;BME280;59838;52.152;5.436;2022-11-20T00:01:05;101590.75;;;-5.36;97.88
71970;BME280;59838;52.152;5.436;2022-11-20T00:03:32;101583.16;;;-5.36;98.08
71970;BME280;59838;52.152;5.436;2022-11-20T00:06:02;101573.72;;;-5.32;97.75
71970;BME280;59838;52.152;5.436;2022-11-20T00:08:32;101575.38;;;-5.31;98.38
71970;BME280;59838;52.152;5.436;2022-11-20T00:11:12;101577.84;;;-5.29;97.93
71970;BME280;59838;52.152;5.436;2022-11-20T00:13:42;101569.34;;;-5.28;98.33
71970;BME280;59838;52.152;5.436;2022-11-20T00:16:11;101573.66;;;-5.30;98.22
71970;BME280;59838;52.152;5.436;2022-11-20T00:18:37;101577.13;;;-5.33;98.30
71970;BME280;59838;52.152;5.436;2022-11-20T00:21:06;101573.97;;;-5.38;98.38
71970;BME280;59838;52.152;5.436;2022-11-20T00:23:33;101574.94;;;-5.41;98.54
71970;BME280;59838;52.152;5.436;2022-11-20T00:26:07;101575.91;;;-5.45;98.15
71970;BME280;59838;52.152;5.436;2022-11-20T00:28:34;101561.66;;;-5.47;98.43
71970;BME280;59838;52.152;5.436;2022-11-20T00:31:12;101581.16;;;-5.49;98.00
71970;BME280;59838;52.152;5.436;2022-11-20T00:33:39;101577.94;;;-5.53;98.16
71970;BME280;59838;52.152;5.436;2022-11-20T00:36:08;101566.19;;;-5.56;98.16
71970;BME280;59838;52.152;5.436;2022-11-20T00:38:35;101568.09;;;-5.61;98.27
71970;BME280;59838;52.152;5.436;2022-11-20T00:41:08;101567.41;;;-5.64;98.32
71970;BME280;59838;52.152;5.436;2022-11-20T00:43:35;101572.63;;;-5.69;98.15
71970;BME280;59838;52.152;5.436;2022-11-20T00:46:13;101566.88;;;-5.73;98.00
71970;BME280;59838;52.152;5.436;2022-11-20T00:48:40;101566.09;;;-5.75;98.54
71970;BME280;59838;52.152;5.436;2022-11-20T00:51:07;101570.31;;;-5.75;98.61
71970;BME280;59838;52.152;5.436;2022-11-20T00:53:34;101561.00;;;-5.73;98.19
71970;BME280;59838;52.152;5.436;2022-11-20T00:56:03;101560.16;;;-5.74;98.24
71970;BME280;59838;52.152;5.436;2022-11-20T00:58:34;101554.97;;;-5.71;98.03
71970;BME280;59838;52.152;5.436;2022-11-20T01:01:02;101552.56;;;-5.74;98.75
71970;BME280;59838;52.152;5.436;2022-11-20T01:03:37;101551.03;;;-5.78;99.08
71970;BME280;59838;52.152;5.436;2022-11-20T01:06:10;101545.28;;;-5.81;98.40
71970;BME280;59838;52.152;5.436;2022-11-20T01:08:38;101550.25;;;-5.80;98.79
71970;BME280;59838;52.152;5.436;2022-11-20T01:11:07;101546.72;;;-5.76;99.32
71970;BME280;59838;52.152;5.436;2022-11-20T01:13:34;101536.72;;;-5.79;99.12
71970;BME280;59838;52.152;5.436;2022-11-20T01:16:06;101542.50;;;-5.75;99.40
71970;BME280;59838;52.152;5.436;2022-11-20T01:18:34;101545.91;;;-5.76;99.23
71970;BME280;59838;52.152;5.436;2022-11-20T01:21:09;101550.09;;;-5.75;99.55
71970;BME280;59838;52.152;5.436;2022-11-20T01:23:39;101539.78;;;-5.71;99.56
71970;BME280;59838;52.152;5.436;2022-11-20T01:26:08;101533.78;;;-5.68;99.56
71970;BME280;59838;52.152;5.436;2022-11-20T01:28:35;101530.34;;;-5.67;99.66
71970;BME280;59838;52.152;5.436;2022-11-20T01:31:14;101529.84;;;-5.75;99.08
71970;BME280;59838;52.152;5.436;2022-11-20T01:33:42;101528.38;;;-5.81;99.53
71970;BME280;59838;52.152;5.436;2022-11-20T01:36:09;101531.84;;;-5.83;99.41
71970;BME280;59838;52.152;5.436;2022-11-20T01:38:36;101529.38;;;-5.85;99.62
71970;BME280;59838;52.152;5.436;2022-11-20T01:41:03;101531.91;;;-5.85;99.42
71970;BME280;59838;52.152;5.436;2022-11-20T01:43:30;101531.03;;;-5.84;99.85
71970;BME280;59838;52.152;5.436;2022-11-20T01:46:03;101537.84;;;-5.86;99.85
71970;BME280;59838;52.152;5.436;2022-11-20T01:48:38;101531.94;;;-5.87;99.40
71970;BME280;59838;52.152;5.436;2022-11-20T01:51:14;101536.97;;;-5.85;99.38
71970;BME280;59838;52.152;5.436;2022-11-20T01:53:43;101537.00;;;-5.87;99.90
71970;BME280;59838;52.152;5.436;2022-11-20T01:56:11;101525.25;;;-5.88;99.64
71970;BME280;59838;52.152;5.436;2022-11-20T01:58:45;101533.66;;;-5.87;100.00
71970;BME280;59838;52.152;5.436;2022-11-20T02:01:14;101520.25;;;-5.89;99.66
71970;BME280;59838;52.152;5.436;2022-11-20T02:03:41;101520.44;;;-5.94;99.77
71970;BME280;59838;52.152;5.436;2022-11-20T02:06:17;101522.03;;;-5.91;99.71
71970;BME280;59838;52.152;5.436;2022-11-20T02:08:46;101517.09;;;-5.94;99.87
71970;BME280;59838;52.152;5.436;2022-11-20T02:11:12;101520.56;;;-5.97;99.71
71970;BME280;59838;52.152;5.436;2022-11-20T02:13:39;101520.63;;;-5.98;100.00
71970;BME280;59838;52.152;5.436;2022-11-20T02:16:19;101518.16;;;-6.00;100.00
71970;BME280;59838;52.152;5.436;2022-11-20T02:18:46;101514.13;;;-6.04;99.65
71970;BME280;59838;52.152;5.436;2022-11-20T02:21:20;101513.38;;;-6.08;100.00
71970;BME280;59838;52.152;5.436;2022-11-20T02:24:21;101517.41;;;-6.02;99.76
71970;BME280;59838;52.152;5.436;2022-11-20T02:26:53;101520.63;;;-5.98;100.00
71970;BME280;59838;52.152;5.436;2022-11-20T02:29:29;101522.41;;;-6.00;99.95
71970;BME280;59838;52.152;5.436;2022-11-20T02:31:58;101520.75;;;-6.01;100.00
71970;BME280;59838;52.152;5.436;2022-11-20T02:34:26;101517.28;;;-5.99;100.00
71970;BME280;59838;52.152;5.436;2022-11-20T02:36:52;101523.97;;;-5.98;99.86
71970;BME280;59838;52.152;5.436;2022-11-20T02:39:20;101514.88;;;-6.02;100.00
71970;BME280;59838;52.152;5.436;2022-11-20T02:41:47;101505.28;;;-6.16;100.00
71970;BME280;59838;52.152;5.436;2022-11-20T02:44:14;101507.03;;;-6.18;99.90
71970;BME280;59838;52.152;5.436;2022-11-20T02:46:40;101498.91;;;-6.26;100.00
71970;BME280;59838;52.152;5.436;2022-11-20T02:49:07;101504.78;;;-6.26;99.87
71970;BME280;59838;52.152;5.436;2022-11-20T02:51:33;101503.22;;;-6.28;99.64
71970;BME280;59838;52.152;5.436;2022-11-20T02:54:02;101495.53;;;-6.25;99.64
71970;BME280;59838;52.152;5.436;2022-11-20T02:56:29;101499.63;;;-6.22;100.00
71970;BME280;59838;52.152;5.436;2022-11-20T02:58:55;101503.88;;;-6.23;99.76
71970;BME280;59838;52.152;5.436;2022-11-20T03:01:22;101500.44;;;-6.22;100.00
71970;BME280;59838;52.152;5.436;2022-11-20T03:03:48;101495.38;;;-6.22;99.94
71970;BME280;59838;52.152;5.436;2022-11-20T03:06:16;101486.22;;;-6.25;100.00
71970;BME280;59838;52.152;5.436;2022-11-20T03:08:43;101488.81;;;-6.26;100.00
71970;BME280;59838;52.152;5.436;2022-11-20T03:11:09;101485.56;;;-6.30;100.00
71970;BME280;59838;52.152;5.436;2022-11-20T03:13:36;101486.50;;;-6.32;100.00
71970;BME280;59838;52.152;5.436;2022-11-20T03:16:17;101477.25;;;-6.33;99.93
71970;BME280;59838;52.152;5.436;2022-11-20T03:18:44;101478.16;;;-6.34;100.00
71970;BME280;59838;52.152;5.436;2022-11-20T03:21:12;101473.09;;;-6.34;99.90
71970;BME280;59838;52.152;5.436;2022-11-20T03:23:40;101478.16;;;-6.34;100.00
71970;BME280;59838;52.152;5.436;2022-11-20T03:26:21;101469.63;;;-6.32;100.00
71970;BME280;59838;52.152;5.436;2022-11-20T03:28:50;101464.59;;;-6.33;100.00
71970;BME280;59838;52.152;5.436;2022-11-20T03:31:19;101468.03;;;-6.34;100.00
71970;BME280;59838;52.152;5.436;2022-11-20T03:33:46;101471.38;;;-6.34;100.00
71970;BME280;59838;52.152;5.436;2022-11-20T03:36:14;101462.22;;;-6.36;100.00
71970;BME280;59838;52.152;5.436;2022-11-20T03:38:41;101473.97;;;-6.35;100.00
71970;BME280;59838;52.152;5.436;2022-11-20T03:41:10;101471.66;;;-6.41;100.00
71970;BME280;59838;52.152;5.436;2022-11-20T03:43:40;101472.78;;;-6.49;100.00
71970;BME280;59838;52.152;5.436;2022-11-20T03:46:07;101473.66;;;-6.50;100.00
71970;BME280;59838;52.152;5.436;2022-11-20T03:48:34;101470.38;;;-6.52;100.00
71970;BME280;59838;52.152;5.436;2022-11-20T03:51:08;101467.06;;;-6.54;99.66
71970;BME280;59838;52.152;5.436;2022-11-20T03:53:35;101464.59;;;-6.55;99.97
71970;BME280;59838;52.152;5.436;2022-11-20T03:56:02;101464.66;;;-6.57;99.85
71970;BME280;59838;52.152;5.436;2022-11-20T03:58:28;101455.47;;;-6.59;99.74
71970;BME280;59838;52.152;5.436;2022-11-20T04:00:54;101452.94;;;-6.59;99.80
71970;BME280;59838;52.152;5.436;2022-11-20T04:03:21;101456.31;;;-6.59;100.00
71970;BME280;59838;52.152;5.436;2022-11-20T04:05:47;101453.78;;;-6.59;99.68
71970;BME280;59838;52.152;5.436;2022-11-20T04:08:14;101457.84;;;-6.55;99.79
71970;BME280;59838;52.152;5.436;2022-11-20T04:10:40;101451.84;;;-6.52;100.00
71970;BME280;59838;52.152;5.436;2022-11-20T04:13:06;101450.19;;;-6.53;100.00
71970;BME280;59838;52.152;5.436;2022-11-20T04:15:33;101445.59;;;-6.66;99.64
71970;BME280;59838;52.152;5.436;2022-11-20T04:18:03;101443.13;;;-6.67;99.94
71970;BME280;59838;52.152;5.436;2022-11-20T04:20:30;101439.66;;;-6.65;100.00
71970;BME280;59838;52.152;5.436;2022-11-20T04:22:56;101440.66;;;-6.69;99.97
71970;BME280;59838;52.152;5.436;2022-11-20T04:25:23;101440.72;;;-6.70;100.00
71970;BME280;59838;52.152;5.436;2022-11-20T04:27:49;101443.41;;;-6.75;99.44
71970;BME280;59838;52.152;5.436;2022-11-20T04:30:16;101446.91;;;-6.79;99.78
71970;BME280;59838;52.152;5.436;2022-11-20T04:32:44;101452.88;;;-6.80;100.00
71970;BME280;59838;52.152;5.436;2022-11-20T04:35:13;101451.09;;;-6.78;99.93
71970;BME280;59838;52.152;5.436;2022-11-20T04:37:40;101441.75;;;-6.76;100.00
71970;BME280;59838;52.152;5.436;2022-11-20T04:40:06;101439.19;;;-6.74;99.58
71970;BME280;59838;52.152;5.436;2022-11-20T04:42:33;101442.72;;;-6.78;99.84
71970;BME280;59838;52.152;5.436;2022-11-20T04:44:59;101433.56;;;-6.83;100.00
71970;BME280;59838;52.152;5.436;2022-11-20T04:47:26;101425.84;;;-6.78;100.00
71970;BME280;59838;52.152;5.436;2022-11-20T04:49:52;101423.38;;;-6.80;100.00
71970;BME280;59838;52.152;5.436;2022-11-20T04:52:19;101423.41;;;-6.81;99.84
71970;BME280;59838;52.152;5.436;2022-11-20T04:54:45;101410.03;;;-6.83;99.87
71970;BME280;59838;52.152;5.436;2022-11-20T04:57:12;101419.34;;;-6.85;100.00
71970;BME280;59838;52.152;5.436;2022-11-20T04:59:40;101414.19;;;-6.82;99.58
71970;BME280;59838;52.152;5.436;2022-11-20T05:02:06;101408.31;;;-6.83;99.92
71970;BME280;59838;52.152;5.436;2022-11-20T05:04:33;101413.69;;;-6.92;99.72
71970;BME280;59838;52.152;5.436;2022-11-20T05:06:59;101416.31;;;-6.95;99.82
71970;BME280;59838;52.152;5.436;2022-11-20T05:09:26;101424.75;;;-6.94;99.89
71970;BME280;59838;52.152;5.436;2022-11-20T05:11:52;101419.59;;;-6.91;100.00
71970;BME280;59838;52.152;5.436;2022-11-20T05:14:18;101411.91;;;-6.88;100.00
71970;BME280;59838;52.152;5.436;2022-11-20T05:16:45;101414.53;;;-6.91;99.70
71970;BME280;59838;52.152;5.436;2022-11-20T05:19:11;101416.31;;;-6.95;99.77
71970;BME280;59838;52.152;5.436;2022-11-20T05:21:38;101416.44;;;-6.98;99.59
71970;BME280;59838;52.152;5.436;2022-11-20T05:24:04;101411.53;;;-7.01;100.00
71970;BME280;59838;52.152;5.436;2022-11-20T05:26:32;101418.97;;;-6.98;100.00
71970;BME280;59838;52.152;5.436;2022-11-20T05:28:58;101402.06;;;-6.96;100.00
71970;BME280;59838;52.152;5.436;2022-11-20T05:31:25;101389.44;;;-6.96;99.54
71970;BME280;59838;52.152;5.436;2022-11-20T05:33:55;101389.72;;;-7.04;99.55
71970;BME280;59838;52.152;5.436;2022-11-20T05:36:22;101388.09;;;-7.06;100.00
71970;BME280;59838;52.152;5.436;2022-11-20T05:38:48;101383.09;;;-7.08;99.83
71970;BME280;59838;52.152;5.436;2022-11-20T05:41:18;101382.41;;;-7.11;99.68
71970;BME280;59838;52.152;5.436;2022-11-20T05:43:48;101380.78;;;-7.12;99.64
71970;BME280;59838;52.152;5.436;2022-11-20T05:46:17;101388.34;;;-7.12;99.90
71970;BME280;59838;52.152;5.436;2022-11-20T05:48:50;101387.44;;;-7.11;99.72
71970;BME280;59838;52.152;5.436;2022-11-20T05:51:18;101400.19;;;-7.14;99.32
71970;BME280;59838;52.152;5.436;2022-11-20T05:53:45;101404.47;;;-7.17;100.00
71970;BME280;59838;52.152;5.436;2022-11-20T05:56:16;101406.94;;;-7.15;99.52
71970;BME280;59838;52.152;5.436;2022-11-20T05:58:44;101408.66;;;-7.15;99.74
71970;BME280;59838;52.152;5.436;2022-11-20T06:01:16;101407.03;;;-7.18;99.79
71970;BME280;59838;52.152;5.436;2022-11-20T06:03:44;101413.81;;;-7.19;99.95
71970;BME280;59838;52.152;5.436;2022-11-20T06:06:14;101409.69;;;-7.21;99.89
71970;BME280;59838;52.152;5.436;2022-11-20T06:08:41;101420.69;;;-7.22;99.48
71970;BME280;59838;52.152;5.436;2022-11-20T06:11:12;101421.59;;;-7.25;99.40
71970;BME280;59838;52.152;5.436;2022-11-20T06:13:39;101415.72;;;-7.25;99.52
71970;BME280;59838;52.152;5.436;2022-11-20T06:16:09;101414.88;;;-7.26;99.33
71970;BME280;59838;52.152;5.436;2022-11-20T06:18:38;101427.47;;;-7.24;100.00
71970;BME280;59838;52.152;5.436;2022-11-20T06:21:07;101423.31;;;-7.25;99.92
71970;BME280;59838;52.152;5.436;2022-11-20T06:23:35;101425.81;;;-7.25;99.94
71970;BME280;59838;52.152;5.436;2022-11-20T06:26:07;101431.75;;;-7.26;99.80
71970;BME280;59838;52.152;5.436;2022-11-20T06:28:34;101425.13;;;-7.30;99.40
71970;BME280;59838;52.152;5.436;2022-11-20T06:31:01;101424.31;;;-7.31;99.68
71970;BME280;59838;52.152;5.436;2022-11-20T06:33:28;101422.75;;;-7.33;99.28
71970;BME280;59838;52.152;5.436;2022-11-20T06:36:02;101421.91;;;-7.34;99.32
71970;BME280;59838;52.152;5.436;2022-11-20T06:38:35;101419.31;;;-7.32;99.78
71970;BME280;59838;52.152;5.436;2022-11-20T06:41:03;101416.69;;;-7.29;99.54
71970;BME280;59838;52.152;5.436;2022-11-20T06:43:29;101414.94;;;-7.27;99.62
71970;BME280;59838;52.152;5.436;2022-11-20T06:45:57;101425.88;;;-7.27;99.69
71970;BME280;59838;52.152;5.436;2022-11-20T06:48:25;101428.41;;;-7.27;99.05
71970;BME280;59838;52.152;5.436;2022-11-20T06:50:52;101425.94;;;-7.28;99.44
71970;BME280;59838;52.152;5.436;2022-11-20T06:53:18;101425.81;;;-7.25;99.42
71970;BME280;59838;52.152;5.436;2022-11-20T06:55:46;101415.69;;;-7.24;99.74
71970;BME280;59838;52.152;5.436;2022-11-20T06:58:14;101423.06;;;-7.19;99.32
71970;BME280;59838;52.152;5.436;2022-11-20T07:00:42;101417.16;;;-7.18;99.54
71970;BME280;59838;52.152;5.436;2022-11-20T07:03:10;101413.75;;;-7.17;99.96
71970;BME280;59838;52.152;5.436;2022-11-20T07:05:37;101406.94;;;-7.15;99.38
71970;BME280;59838;52.152;5.436;2022-11-20T07:08:04;101408.50;;;-7.11;99.63
71970;BME280;59838;52.152;5.436;2022-11-20T07:10:31;101418.59;;;-7.11;99.21
71970;BME280;59838;52.152;5.436;2022-11-20T07:12:57;101407.81;;;-7.16;99.71
71970;BME280;59838;52.152;5.436;2022-11-20T07:15:25;101407.75;;;-7.14;99.51
71970;BME280;59838;52.152;5.436;2022-11-20T07:17:51;101406.06;;;-7.14;99.60
71970;BME280;59838;52.152;5.436;2022-11-20T07:20:18;101401.03;;;-7.14;99.27
71970;BME280;59838;52.152;5.436;2022-11-20T07:22:44;101404.53;;;-7.18;99.06
71970;BME280;59838;52.152;5.436;2022-11-20T07:25:11;101405.47;;;-7.21;99.57
71970;BME280;59838;52.152;5.436;2022-11-20T07:27:37;101409.56;;;-7.18;99.50
71970;BME280;59838;52.152;5.436;2022-11-20T07:30:04;101401.03;;;-7.14;99.36
71970;BME280;59838;52.152;5.436;2022-11-20T07:32:31;101394.06;;;-7.07;99.46
71970;BME280;59838;52.152;5.436;2022-11-20T07:34:57;101389.59;;;-7.01;99.39
71970;BME280;59838;52.152;5.436;2022-11-20T07:37:26;101384.22;;;-6.91;99.48
71970;BME280;59838;52.152;5.436;2022-11-20T07:39:54;101393.91;;;-6.81;99.65
71970;BME280;59838;52.152;5.436;2022-11-20T07:42:20;101378.47;;;-6.73;100.00
71970;BME280;59838;52.152;5.436;2022-11-20T07:44:47;101384.59;;;-6.56;99.69
71970;BME280;59838;52.152;5.436;2022-11-20T07:47:13;101382.47;;;-6.45;99.95
71970;BME280;59838;52.152;5.436;2022-11-20T07:49:39;101383.06;;;-6.38;99.82
71970;BME280;59838;52.152;5.436;2022-11-20T07:52:06;101387.94;;;-6.34;99.81
71970;BME280;59838;52.152;5.436;2022-11-20T07:54:32;101385.13;;;-6.26;100.00
71970;BME280;59838;52.152;5.436;2022-11-20T07:56:59;101391.44;;;-6.16;99.59
71970;BME280;59838;52.152;5.436;2022-11-20T07:59:25;101393.50;;;-6.03;99.72
71970;BME280;59838;52.152;5.436;2022-11-20T08:01:52;101396.34;;;-5.91;99.70
71970;BME280;59838;52.152;5.436;2022-11-20T08:04:18;101395.97;;;-5.81;99.84
71970;BME280;59838;52.152;5.436;2022-11-20T08:06:45;101387.28;;;-5.76;99.83
71970;BME280;59838;52.152;5.436;2022-11-20T08:09:11;101387.03;;;-5.70;99.38
71970;BME280;59838;52.152;5.436;2022-11-20T08:11:37;101380.00;;;-5.63;99.66
71970;BME280;59838;52.152;5.436;2022-11-20T08:14:24;101368.88;;;-5.59;100.00
71970;BME280;59838;52.152;5.436;2022-11-20T08:16:50;101369.44;;;-5.52;99.48
71970;BME280;59838;52.152;5.436;2022-11-20T08:19:17;101380.13;;;-5.45;99.60
71970;BME280;59838;52.152;5.436;2022-11-20T08:21:45;101378.09;;;-5.37;99.69
71970;BME280;59838;52.152;5.436;2022-11-20T08:24:11;101371.41;;;-5.19;99.88
71970;BME280;59838;52.152;5.436;2022-11-20T08:26:39;101364.94;;;-5.07;100.00
71970;BME280;59838;52.152;5.436;2022-11-20T08:29:06;101366.34;;;-5.00;99.96
71970;BME280;59838;52.152;5.436;2022-11-20T08:31:33;101357.50;;;-4.91;100.00
71970;BME280;59838;52.152;5.436;2022-11-20T08:33:59;101365.63;;;-4.85;99.99
71970;BME280;59838;52.152;5.436;2022-11-20T08:36:33;101364.56;;;-4.79;100.00
71970;BME280;59838;52.152;5.436;2022-11-20T08:39:00;101371.72;;;-4.70;100.00
71970;BME280;59838;52.152;5.436;2022-11-20T08:41:26;101371.28;;;-4.61;100.00
71970;BME280;59838;52.152;5.436;2022-11-20T08:43:59;101375.03;;;-4.50;100.00
71970;BME280;59838;52.152;5.436;2022-11-20T08:46:30;101369.47;;;-4.39;100.00
71970;BME280;59838;52.152;5.436;2022-11-20T08:48:58;101367.41;;;-4.31;100.00
71970;BME280;59838;52.152;5.436;2022-11-20T08:51:24;101365.44;;;-4.26;100.00
71970;BME280;59838;52.152;5.436;2022-11-20T08:53:51;101360.84;;;-4.18;100.00
71970;BME280;59838;52.152;5.436;2022-11-20T08:56:17;101359.59;;;-4.09;99.84
71970;BME280;59838;52.152;5.436;2022-11-20T08:58:44;101355.84;;;-4.02;100.00
71970;BME280;59838;52.152;5.436;2022-11-20T09:01:30;101354.44;;;-3.90;100.00
71970;BME280;59838;52.152;5.436;2022-11-20T09:03:57;101348.94;;;-3.82;100.00
71970;BME280;59838;52.152;5.436;2022-11-20T09:06:23;101351.19;;;-3.76;100.00
71970;BME280;59838;52.152;5.436;2022-11-20T09:08:54;101344.84;;;-3.68;100.00
71970;BME280;59838;52.152;5.436;2022-11-20T09:11:21;101348.69;;;-3.60;100.00
71970;BME280;59838;52.152;5.436;2022-11-20T09:13:47;101352.66;;;-3.55;100.00
71970;BME280;59838;52.152;5.436;2022-11-20T09:16:14;101351.44;;;-3.47;100.00
71970;BME280;59838;52.152;5.436;2022-11-20T09:18:40;101350.28;;;-3.42;100.00
71970;BME280;59838;52.152;5.436;2022-11-20T09:21:10;101348.19;;;-3.34;100.00
71970;BME280;59838;52.152;5.436;2022-11-20T09:23:38;101338.47;;;-3.25;100.00
71970;BME280;59838;52.152;5.436;2022-11-20T09:26:07;101329.75;;;-3.21;100.00
71970;BME280;59838;52.152;5.436;2022-11-20T09:28:35;101325.16;;;-3.15;100.00
71970;BME280;59838;52.152;5.436;2022-11-20T09:31:07;101320.50;;;-3.06;100.00
71970;BME280;59838;52.152;5.436;2022-11-20T09:33:35;101312.47;;;-2.99;100.00
71970;BME280;59838;52.152;5.436;2022-11-20T09:36:01;101313.59;;;-2.88;100.00
71970;BME280;59838;52.152;5.436;2022-11-20T09:38:28;101314.03;;;-2.80;100.00
71970;BME280;59838;52.152;5.436;2022-11-20T09:41:03;101305.69;;;-2.68;100.00
71970;BME280;59838;52.152;5.436;2022-11-20T09:51:59;101288.19;;;-2.28;100.00
71970;BME280;59838;52.152;5.436;2022-11-20T09:54:30;101284.13;;;-2.16;100.00
71970;BME280;59838;52.152;5.436;2022-11-20T09:57:00;101292.75;;;-2.04;100.00
71970;BME280;59838;52.152;5.436;2022-11-20T09:59:45;101296.34;;;-1.92;100.00
71970;BME280;59838;52.152;5.436;2022-11-20T10:05:06;101281.16;;;-1.79;100.00
71970;BME280;59838;52.152;5.436;2022-11-20T10:07:44;101278.78;;;-1.68;100.00
71970;BME280;59838;52.152;5.436;2022-11-20T10:10:18;101270.78;;;-1.62;100.00
71970;BME280;59838;52.152;5.436;2022-11-20T10:13:07;101272.22;;;-1.58;100.00
71970;BME280;59838;52.152;5.436;2022-11-20T10:15:59;101266.41;;;-1.45;100.00
71970;BME280;59838;52.152;5.436;2022-11-20T10:21:24;101261.44;;;-1.20;99.57
71970;BME280;59838;52.152;5.436;2022-11-20T10:30:06;101248.41;;;-1.02;99.30
71970;BME280;59838;52.152;5.436;2022-11-20T10:32:48;101238.88;;;-0.99;99.41
71970;BME280;59838;52.152;5.436;2022-11-20T10:35:32;101230.09;;;-0.95;99.07
71970;BME280;59838;52.152;5.436;2022-11-20T10:38:09;101231.63;;;-0.92;99.03
71970;BME280;59838;52.152;5.436;2022-11-20T10:40:45;101219.69;;;-0.92;98.55
71970;BME280;59838;52.152;5.436;2022-11-20T10:43:33;101227.16;;;-0.88;98.21
71970;BME280;59838;52.152;5.436;2022-11-20T10:46:11;101221.66;;;-0.82;98.25
71970;BME280;59838;52.152;5.436;2022-11-20T10:48:43;101216.16;;;-0.76;98.25
71970;BME280;59838;52.152;5.436;2022-11-20T10:51:21;101213.50;;;-0.75;98.14
71970;BME280;59838;52.152;5.436;2022-11-20T10:54:04;101208.00;;;-0.68;98.74
71970;BME280;59838;52.152;5.436;2022-11-20T10:56:56;101191.59;;;-0.64;98.21
71970;BME280;59838;52.152;5.436;2022-11-20T10:59:41;101187.09;;;-0.61;98.52
71970;BME280;59838;52.152;5.436;2022-11-20T11:02:22;101184.34;;;-0.58;98.14
71970;BME280;59838;52.152;5.436;2022-11-20T11:04:51;101188.00;;;-0.49;98.63
71970;BME280;59838;52.152;5.436;2022-11-20T11:07:24;101193.41;;;-0.41;98.71
71970;BME280;59838;52.152;5.436;2022-11-20T11:09:53;101189.56;;;-0.33;98.51
71970;BME280;59838;52.152;5.436;2022-11-20T11:12:22;101173.19;;;-0.31;98.26
71970;BME280;59838;52.152;5.436;2022-11-20T11:14:51;101177.91;;;-0.25;98.49
71970;BME280;59838;52.152;5.436;2022-11-20T11:17:32;101162.16;;;-0.19;98.35
71970;BME280;59838;52.152;5.436;2022-11-20T11:22:44;101154.28;;;-0.15;98.26
71970;BME280;59838;52.152;5.436;2022-11-20T11:25:20;101148.28;;;-0.14;99.02
71970;BME280;59838;52.152;5.436;2022-11-20T11:27:47;101141.41;;;-0.14;99.21
71970;BME280;59838;52.152;5.436;2022-11-20T11:30:16;101139.47;;;-0.10;99.50
71970;BME280;59838;52.152;5.436;2022-11-20T11:32:43;101128.84;;;-0.04;99.37
71970;BME280;59838;52.152;5.436;2022-11-20T11:35:31;101118.00;;;0.05;100.00
71970;BME280;59838;52.152;5.436;2022-11-20T11:38:04;101125.09;;;0.13;100.00
71970;BME280;59838;52.152;5.436;2022-11-20T11:40:35;101111.78;;;0.21;100.00
71970;BME280;59838;52.152;5.436;2022-11-20T11:43:05;101100.34;;;0.26;100.00
71970;BME280;59838;52.152;5.436;2022-11-20T11:45:53;101094.91;;;0.31;100.00
71970;BME280;59838;52.152;5.436;2022-11-20T11:48:20;101095.72;;;0.31;100.00
71970;BME280;59838;52.152;5.436;2022-11-20T11:50:50;101096.50;;;0.32;100.00
71970;BME280;59838;52.152;5.436;2022-11-20T11:53:19;101093.75;;;0.35;100.00
71970;BME280;59838;52.152;5.436;2022-11-20T11:58:46;101088.69;;;0.46;100.00
71970;BME280;59838;52.152;5.436;2022-11-20T12:01:47;101082.44;;;0.50;100.00
71970;BME280;59838;52.152;5.436;2022-11-20T12:04:43;101076.97;;;0.55;100.00
71970;BME280;59838;52.152;5.436;2022-11-20T12:07:15;101069.81;;;0.60;100.00
71970;BME280;59838;52.152;5.436;2022-11-20T12:10:14;101068.53;;;0.66;100.00
71970;BME280;59838;52.152;5.436;2022-11-20T12:12:44;101058.78;;;0.71;100.00
71970;BME280;59838;52.152;5.436;2022-11-20T12:15:31;101049.72;;;0.78;100.00
71970;BME280;59838;52.152;5.436;2022-11-20T12:17:59;101040.66;;;0.85;100.00
71970;BME280;59838;52.152;5.436;2022-11-20T12:20:36;101046.25;;;0.90;100.00
71970;BME280;59838;52.152;5.436;2022-11-20T12:23:30;101046.75;;;0.96;100.00
71970;BME280;59838;52.152;5.436;2022-11-20T12:26:06;101040.34;;;1.01;100.00
71970;BME280;59838;52.152;5.436;2022-11-20T12:28:53;101035.56;;;1.08;100.00
71970;BME280;59838;52.152;5.436;2022-11-20T12:34:47;101033.03;;;1.19;100.00
71970;BME280;59838;52.152;5.436;2022-11-20T12:46:03;101020.56;;;1.26;100.00
71970;BME280;59838;52.152;5.436;2022-11-20T12:51:32;101007.09;;;1.24;100.00
71970;BME280;59838;52.152;5.436;2022-11-20T12:56:49;100968.69;;;1.24;100.00
71970;BME280;59838;52.152;5.436;2022-11-20T12:59:33;100965.22;;;1.25;100.00
71970;BME280;59838;52.152;5.436;2022-11-20T13:02:16;100963.34;;;1.27;100.00
71970;BME280;59838;52.152;5.436;2022-11-20T13:05:00;100967.78;;;1.25;100.00
71970;BME280;59838;52.152;5.436;2022-11-20T13:07:30;100957.41;;;1.26;100.00
71970;BME280;59838;52.152;5.436;2022-11-20T13:09:58;100939.63;;;1.25;100.00
71970;BME280;59838;52.152;5.436;2022-11-20T13:12:46;100946.22;;;1.27;100.00
71970;BME280;59838;52.152;5.436;2022-11-20T13:15:36;100941.78;;;1.30;100.00
71970;BME280;59838;52.152;5.436;2022-11-20T13:18:09;100939.13;;;1.31;100.00
71970;BME280;59838;52.152;5.436;2022-11-20T13:20:43;100927.28;;;1.30;100.00
71970;BME280;59838;52.152;5.436;2022-11-20T13:23:09;100917.28;;;1.27;100.00
71970;BME280;59838;52.152;5.436;2022-11-20T13:25:38;100925.75;;;1.27;100.00
71970;BME280;59838;52.152;5.436;2022-11-20T13:30:35;100919.59;;;1.30;100.00
71970;BME280;59838;52.152;5.436;2022-11-20T13:33:22;100906.78;;;1.30;100.00
71970;BME280;59838;52.152;5.436;2022-11-20T13:38:50;100912.72;;;1.31;100.00
71970;BME280;59838;52.152;5.436;2022-11-20T13:41:24;100912.59;;;1.32;100.00
71970;BME280;59838;52.152;5.436;2022-11-20T13:43:57;100915.03;;;1.34;100.00
71970;BME280;59838;52.152;5.436;2022-11-20T13:46:38;100911.44;;;1.36;100.00
71970;BME280;59838;52.152;5.436;2022-11-20T13:49:08;100901.19;;;1.36;100.00
71970;BME280;59838;52.152;5.436;2022-11-20T13:51:48;100896.09;;;1.36;100.00
71970;BME280;59838;52.152;5.436;2022-11-20T14:00:19;100877.34;;;1.36;100.00